Time;durP1;ratioP1;P1;durP2;ratioP2;P2;SDS_P1;SDS_P2;PMS_P1;PMS_P2;Temp;Humidity;BMP_temperature;BMP_pressure;BME280_temperature;BME280_humidity;BME280_pressure;Samples;Min_cycle;Max_cycle;Signal;HPM_P1;HPM_P2
2022/10/25 00:00:51;;;;;;;12.60;4.10;;;;;;;13.20;100.00;101206.75;7376788;19;20013;-68
2022/10/25 00:03:20;;;;;;;11.75;4.35;;;;;;;13.19;100.00;101205.00;7374959;19;20015;-68
2022/10/25 00:05:50;;;;;;;12.23;4.28;;;;;;;13.17;100.00;101212.00;7375502;19;20010;-68
2022/10/25 00:08:22;;;;;;;13.68;3.85;;;;;;;13.18;100.00;101221.66;7378034;19;20011;-68
2022/10/25 00:10:51;;;;;;;15.43;3.58;;;;;;;13.15;100.00;101221.59;7373882;19;20017;-68
2022/10/25 00:13:21;;;;;;;13.27;3.53;;;;;;;13.17;100.00;101227.81;7373187;19;20031;-68
2022/10/25 00:15:51;;;;;;;9.25;3.85;;;;;;;13.16;100.00;101225.13;7377343;19;20011;-68
2022/10/25 00:18:20;;;;;;;16.27;3.55;;;;;;;13.18;100.00;101229.56;7373842;19;20011;-68
2022/10/25 00:20:50;;;;;;;11.18;3.20;;;;;;;13.14;100.00;101237.38;7372408;19;20022;-68
2022/10/25 00:23:22;;;;;;;10.38;3.17;;;;;;;13.15;100.00;101237.41;7376632;19;20015;-68
2022/10/25 00:26:01;;;;;;;14.07;3.05;;;;;;;13.15;100.00;101240.03;7375704;19;20018;-68
2022/10/25 00:28:31;;;;;;;13.93;3.25;;;;;;;13.10;100.00;101242.63;7376795;19;20006;-68
2022/10/25 00:31:02;;;;;;;13.73;2.90;;;;;;;13.13;100.00;101241.78;7370338;19;20014;-68
2022/10/25 00:33:32;;;;;;;11.13;2.88;;;;;;;13.16;100.00;101244.47;7372878;19;20075;-67
2022/10/25 00:36:06;;;;;;;7.65;2.83;;;;;;;13.14;100.00;101240.91;7377379;19;20011;-68
2022/10/25 00:38:39;;;;;;;11.80;3.70;;;;;;;13.16;100.00;101241.84;7377698;19;20855;-68
2022/10/25 00:41:10;;;;;;;18.65;4.35;;;;;;;13.20;100.00;101243.63;7381009;19;20010;-68
2022/10/25 00:43:43;;;;;;;12.80;3.47;;;;;;;13.27;100.00;101245.44;7383007;19;20021;-68
2022/10/25 00:46:20;;;;;;;12.38;3.40;;;;;;;13.20;100.00;101246.25;7382014;19;20019;-67
2022/10/25 00:48:55;;;;;;;11.02;3.58;;;;;;;13.18;100.00;101245.38;7380984;19;20010;-68
2022/10/25 00:51:31;;;;;;;14.00;4.15;;;;;;;13.13;100.00;101247.03;7381578;19;20022;-68
2022/10/25 00:54:04;;;;;;;14.90;3.30;;;;;;;13.06;100.00;101248.72;7368906;19;20017;-68
2022/10/25 00:56:38;;;;;;;14.82;2.85;;;;;;;13.07;100.00;101246.97;7381031;19;20414;-68
2022/10/25 00:59:11;;;;;;;10.55;2.83;;;;;;;13.11;100.00;101246.16;7382963;19;20486;-68
2022/10/25 01:01:41;;;;;;;15.85;3.83;;;;;;;13.03;100.00;101246.06;7379994;19;20010;-67
2022/10/25 01:04:15;;;;;;;14.13;3.17;;;;;;;13.06;100.00;101250.47;7380314;19;20014;-68
2022/10/25 01:06:49;;;;;;;25.98;3.88;;;;;;;13.03;100.00;101248.72;7380720;19;20034;-68
2022/10/25 01:09:23;;;;;;;11.75;3.58;;;;;;;13.00;100.00;101248.69;7378168;19;20656;-68
2022/10/25 01:11:53;;;;;;;10.73;2.85;;;;;;;12.98;100.00;101246.91;7384318;19;20015;-68
2022/10/25 01:14:24;;;;;;;8.60;3.22;;;;;;;12.92;100.00;101252.09;7382271;19;20104;-68
2022/10/25 01:17:02;;;;;;;12.05;3.83;;;;;;;12.96;100.00;101259.16;7382474;19;20438;-68
2022/10/25 01:20:02;;;;;;;9.07;3.03;;;;;;;12.92;100.00;101266.16;7382127;19;20007;-68
2022/10/25 01:22:35;;;;;;;14.32;3.35;;;;;;;12.94;100.00;101266.16;7383053;19;20010;-68
2022/10/25 01:25:25;;;;;;;10.77;3.03;;;;;;;12.89;100.00;101262.59;7379208;19;20015;-68
2022/10/25 01:28:15;;;;;;;16.00;4.15;;;;;;;12.89;100.00;101266.09;7382127;19;20011;-68
2022/10/25 01:31:18;;;;;;;11.35;3.45;;;;;;;12.86;100.00;101268.72;7385711;19;20011;-68
2022/10/25 01:33:57;;;;;;;14.75;3.50;;;;;;;12.84;100.00;101269.56;7384611;19;20010;-68
2022/10/25 01:36:38;;;;;;;13.75;3.90;;;;;;;12.85;100.00;101260.78;7381888;19;20014;-68
2022/10/25 01:39:12;;;;;;;19.02;3.60;;;;;;;12.96;100.00;101274.97;7384051;19;20017;-68
2022/10/25 01:41:51;;;;;;;12.25;3.50;;;;;;;12.96;100.00;101265.31;7377286;19;20019;-67
2022/10/25 01:44:33;;;;;;;12.32;3.05;;;;;;;13.03;100.00;101282.06;7373337;19;20868;-68
2022/10/25 01:47:31;;;;;;;12.45;3.30;;;;;;;13.02;100.00;101270.63;7378566;19;20025;-67
2022/10/25 01:50:05;;;;;;;14.27;3.97;;;;;;;13.04;100.00;101271.53;7378714;19;20011;-68
2022/10/25 01:52:35;;;;;;;13.57;4.75;;;;;;;13.06;100.00;101274.19;7375660;19;20011;-68
2022/10/25 01:55:10;;;;;;;18.23;3.70;;;;;;;13.01;100.00;101275.88;7381424;19;20037;-68
2022/10/25 01:57:57;;;;;;;14.05;4.35;;;;;;;13.01;100.00;101271.50;7374276;19;20073;-69
2022/10/25 02:00:27;;;;;;;20.45;3.72;;;;;;;12.94;100.00;101277.56;7380996;19;20015;-68
2022/10/25 02:03:17;;;;;;;17.92;3.83;;;;;;;12.96;100.00;101270.56;7380190;19;20059;-68
2022/10/25 02:06:01;;;;;;;19.73;4.30;;;;;;;12.89;100.00;101283.66;7373328;19;20101;-68
2022/10/25 02:08:37;;;;;;;17.65;3.45;;;;;;;12.91;100.00;101274.03;7379249;19;20033;-69
2022/10/25 02:11:16;;;;;;;18.48;3.45;;;;;;;12.87;100.00;101285.38;7379919;19;20011;-68
2022/10/25 02:13:58;;;;;;;16.60;4.40;;;;;;;12.87;100.00;101274.84;7376865;19;20011;-67
2022/10/25 02:16:31;;;;;;;15.50;3.13;;;;;;;12.85;100.00;101282.75;7373345;19;20617;-68
2022/10/25 02:19:07;;;;;;;15.50;3.20;;;;;;;12.81;100.00;101280.06;7378310;19;20011;-68
2022/10/25 02:21:38;;;;;;;17.63;3.25;;;;;;;12.76;100.00;101280.88;7380188;19;20011;-69
2022/10/25 02:24:13;;;;;;;15.88;3.75;;;;;;;12.72;100.00;101281.72;7377803;19;20429;-67
2022/10/25 02:26:44;;;;;;;15.02;4.65;;;;;;;12.75;100.00;101292.28;7379134;19;20018;-66
2022/10/25 02:29:16;;;;;;;13.68;2.83;;;;;;;12.77;100.00;101300.19;7372622;19;20474;-66
2022/10/25 02:31:47;;;;;;;13.60;4.10;;;;;;;12.70;100.00;101293.97;7381675;19;20474;-66
2022/10/25 02:34:19;;;;;;;13.50;3.22;;;;;;;12.64;100.00;101301.78;7373072;19;20014;-66
2022/10/25 02:36:50;;;;;;;8.35;3.05;;;;;;;12.69;100.00;101302.72;7377660;19;20039;-66
2022/10/25 02:39:22;;;;;;;18.05;3.95;;;;;;;12.63;100.00;101299.16;7379639;19;20294;-66
2022/10/25 02:41:57;;;;;;;17.48;3.80;;;;;;;12.65;100.00;101303.56;7374414;19;20014;-66
2022/10/25 02:44:27;;;;;;;15.18;3.58;;;;;;;12.58;100.00;101304.34;7378249;19;20011;-66
2022/10/25 02:46:56;;;;;;;12.25;3.20;;;;;;;12.58;100.00;101301.72;7378919;19;20006;-66
2022/10/25 02:49:29;;;;;;;10.52;2.80;;;;;;;12.56;100.00;101299.94;7375275;19;20138;-67
2022/10/25 02:51:58;;;;;;;13.00;2.97;;;;;;;12.47;100.00;101303.38;7377099;19;20013;-67
2022/10/25 02:54:28;;;;;;;15.90;3.72;;;;;;;12.44;100.00;101300.69;7372610;19;20043;-66
2022/10/25 02:56:57;;;;;;;24.20;4.05;;;;;;;12.44;100.00;101312.09;7372590;19;20007;-66
2022/10/25 02:59:28;;;;;;;13.45;3.22;;;;;;;12.44;100.00;101316.47;7379811;19;20006;-66
2022/10/25 03:01:58;;;;;;;13.48;3.15;;;;;;;12.41;100.00;101309.44;7370879;19;20032;-66
2022/10/25 03:04:30;;;;;;;11.07;2.75;;;;;;;12.42;100.00;101313.81;7379415;19;20042;-67
2022/10/25 03:07:00;;;;;;;12.95;3.55;;;;;;;12.46;100.00;101317.38;7376102;19;20495;-67
2022/10/25 03:09:29;;;;;;;13.25;3.83;;;;;;;12.46;100.00;101313.88;7378905;19;20010;-67
2022/10/25 03:11:59;;;;;;;13.43;3.58;;;;;;;12.43;100.00;101325.22;7376428;19;20034;-66
2022/10/25 03:14:28;;;;;;;16.15;3.40;;;;;;;12.44;100.00;101329.63;7379240;19;20015;-66
2022/10/25 03:16:58;;;;;;;16.48;3.70;;;;;;;12.43;100.00;101322.59;7369385;19;20007;-67
2022/10/25 03:19:30;;;;;;;11.82;4.47;;;;;;;12.39;100.00;101326.94;7377685;19;20030;-66
2022/10/25 03:22:00;;;;;;;14.65;3.65;;;;;;;12.38;100.00;101332.19;7379792;19;20014;-66
2022/10/25 03:24:29;;;;;;;10.85;2.90;;;;;;;12.33;100.00;101333.84;7377321;19;20022;-67
2022/10/25 03:27:00;;;;;;;16.77;3.42;;;;;;;12.33;100.00;101336.50;7378402;19;20082;-67
2022/10/25 03:29:30;;;;;;;16.33;3.78;;;;;;;12.30;100.00;101341.72;7378414;19;20010;-67
2022/10/25 03:31:59;;;;;;;9.68;3.03;;;;;;;12.29;100.00;101345.19;7378505;19;20514;-67
2022/10/25 03:34:32;;;;;;;15.27;3.17;;;;;;;12.35;100.00;101337.41;7376136;19;20006;-67
2022/10/25 03:37:01;;;;;;;14.65;4.45;;;;;;;12.33;100.00;101344.38;7378630;19;20102;-68
2022/10/25 03:39:31;;;;;;;15.57;3.67;;;;;;;12.32;100.00;101353.13;7378196;19;20013;-68
2022/10/25 03:42:00;;;;;;;13.60;3.30;;;;;;;12.38;100.00;101359.38;7376550;19;20010;-70
2022/10/25 03:44:30;;;;;;;13.18;3.25;;;;;;;12.39;100.00;101363.75;7372825;19;21506;-70
2022/10/25 03:47:00;;;;;;;12.32;3.70;;;;;;;12.37;100.00;101362.84;7371676;19;20600;-70
2022/10/25 03:49:32;;;;;;;15.23;3.30;;;;;;;12.40;100.00;101364.66;7371689;19;20026;-70
2022/10/25 03:52:01;;;;;;;14.38;4.28;;;;;;;12.43;100.00;101372.59;7374603;19;20019;-70
2022/10/25 03:54:33;;;;;;;12.88;3.70;;;;;;;12.37;100.00;101362.84;7377168;19;20025;-68
2022/10/25 03:57:03;;;;;;;12.57;4.05;;;;;;;12.32;100.00;101364.53;7373927;19;20018;-68
2022/10/25 03:59:32;;;;;;;16.38;3.60;;;;;;;12.35;100.00;101361.06;7378769;19;20319;-68
2022/10/25 04:02:03;;;;;;;21.70;3.90;;;;;;;12.41;100.00;101363.78;7375336;19;20022;-70
2022/10/25 04:04:35;;;;;;;16.70;4.20;;;;;;;12.40;100.00;101367.28;7373419;19;20010;-69
2022/10/25 04:07:05;;;;;;;18.40;4.32;;;;;;;12.36;100.00;101360.22;7371356;19;20019;-67
2022/10/25 04:09:35;;;;;;;15.73;5.32;;;;;;;12.32;100.00;101358.38;7375315;19;20011;-67
2022/10/25 04:12:04;;;;;;;16.23;4.38;;;;;;;12.32;100.00;101363.66;7374992;19;20013;-67
2022/10/25 04:14:34;;;;;;;16.17;4.70;;;;;;;12.33;100.00;101362.78;7381255;19;20025;-67
2022/10/25 04:17:03;;;;;;;17.35;4.85;;;;;;;12.29;100.00;101356.59;7380545;19;20015;-67
2022/10/25 04:19:36;;;;;;;17.30;6.03;;;;;;;12.25;100.00;101373.19;7383198;19;20021;-67
2022/10/25 04:22:05;;;;;;;16.23;4.22;;;;;;;12.26;100.00;101381.97;7380865;19;20025;-67
2022/10/25 04:24:35;;;;;;;14.93;4.72;;;;;;;12.29;100.00;101385.53;7379229;19;20391;-67
2022/10/25 04:27:05;;;;;;;17.67;4.13;;;;;;;12.38;100.00;101387.41;7376286;19;20002;-67
2022/10/25 04:29:35;;;;;;;16.48;4.72;;;;;;;12.42;100.00;101386.59;7378693;19;20034;-67
2022/10/25 04:32:04;;;;;;;14.05;3.78;;;;;;;12.42;100.00;101391.84;7381224;19;20059;-67
2022/10/25 04:34:36;;;;;;;14.25;3.60;;;;;;;12.42;100.00;101399.75;7381639;19;20059;-67
2022/10/25 04:37:06;;;;;;;11.18;4.00;;;;;;;12.48;100.00;101405.06;7383072;19;20010;-67
2022/10/25 04:39:36;;;;;;;18.80;5.18;;;;;;;12.48;100.00;101412.09;7380774;19;20462;-67
2022/10/25 04:42:05;;;;;;;15.88;4.70;;;;;;;12.47;100.00;101411.22;7376062;19;20010;-67
2022/10/25 04:44:35;;;;;;;18.50;5.28;;;;;;;12.47;100.00;101412.97;7378104;19;20126;-67
2022/10/25 04:47:05;;;;;;;11.43;4.65;;;;;;;12.53;100.00;101416.53;7373827;19;20026;-67
2022/10/25 04:49:37;;;;;;;22.20;5.93;;;;;;;12.47;100.00;101411.22;7380235;19;20025;-67
2022/10/25 04:52:07;;;;;;;15.70;5.25;;;;;;;12.45;100.00;101423.47;7374545;19;20026;-67
2022/10/25 04:54:36;;;;;;;15.93;6.07;;;;;;;12.42;100.00;101423.44;7381356;19;20030;-67
2022/10/25 04:57:06;;;;;;;17.35;6.13;;;;;;;12.37;100.00;101430.38;7376169;19;20014;-72
2022/10/25 04:59:36;;;;;;;9.35;3.78;;;;;;;12.37;100.00;101430.38;7378738;19;20078;-68
2022/10/25 05:02:06;;;;;;;19.67;4.85;;;;;;;12.36;100.00;101428.59;7376628;19;20022;-68
2022/10/25 05:04:39;;;;;;;14.43;4.10;;;;;;;12.35;100.00;101432.09;7382866;19;20028;-68
2022/10/25 05:07:08;;;;;;;20.13;4.88;;;;;;;12.33;100.00;101428.53;7376652;19;20015;-68
2022/10/25 05:09:38;;;;;;;18.10;5.60;;;;;;;12.24;100.00;101429.28;7383996;19;20440;-68
2022/10/25 05:12:13;;;;;;;16.63;5.18;;;;;;;12.28;100.00;101436.38;7383098;19;20106;-68
2022/10/25 05:14:43;;;;;;;16.85;4.72;;;;;;;12.23;100.00;101430.16;7382814;19;20014;-68
2022/10/25 05:17:13;;;;;;;18.00;5.35;;;;;;;12.22;100.00;101430.13;7380426;19;20011;-70
2022/10/25 05:19:45;;;;;;;13.80;5.75;;;;;;;12.18;100.00;101444.09;7378731;19;20022;-68
2022/10/25 05:22:14;;;;;;;17.25;4.72;;;;;;;12.11;100.00;101449.25;7378691;19;20098;-68
2022/10/25 05:24:44;;;;;;;16.42;5.53;;;;;;;12.12;100.00;101444.88;7380120;19;20377;-69
2022/10/25 05:27:14;;;;;;;12.73;4.55;;;;;;;12.08;100.00;101448.31;7379558;19;20616;-67
2022/10/25 05:29:44;;;;;;;12.48;4.65;;;;;;;12.05;100.00;101443.00;7382322;19;20014;-67
2022/10/25 05:32:13;;;;;;;15.65;5.28;;;;;;;12.01;100.00;101452.56;7376538;19;20021;-67
2022/10/25 05:34:46;;;;;;;13.40;4.80;;;;;;;12.08;100.00;101454.44;7381836;19;20491;-67
2022/10/25 05:37:15;;;;;;;16.55;5.22;;;;;;;12.08;100.00;101459.69;7381547;19;20030;-67
2022/10/25 05:39:45;;;;;;;16.77;5.72;;;;;;;12.10;100.00;101457.97;7378399;19;20029;-67
2022/10/25 05:42:15;;;;;;;17.88;6.18;;;;;;;12.17;100.00;101465.97;7372160;19;20007;-67
2022/10/25 05:44:44;;;;;;;14.02;6.85;;;;;;;12.15;100.00;101455.44;7376217;19;20037;-67
2022/10/25 05:47:14;;;;;;;19.60;7.32;;;;;;;12.24;100.00;101462.59;7366477;19;20010;-69
2022/10/25 05:49:46;;;;;;;20.10;7.57;;;;;;;12.20;100.00;101471.28;7377261;19;20011;-67
2022/10/25 05:52:16;;;;;;;16.23;7.00;;;;;;;12.13;100.00;101465.03;7374171;19;20401;-67
2022/10/25 05:54:46;;;;;;;17.20;7.18;;;;;;;12.09;100.00;101465.84;7371761;19;20610;-66
2022/10/25 05:57:16;;;;;;;19.25;7.47;;;;;;;12.08;100.00;101459.69;7373728;19;20006;-67
2022/10/25 05:59:45;;;;;;;17.80;7.88;;;;;;;12.02;100.00;101461.34;7372842;19;20704;-67
2022/10/25 06:02:15;;;;;;;24.65;9.07;;;;;;;12.07;100.00;101467.56;7373497;19;20106;-67
2022/10/25 06:04:47;;;;;;;26.88;9.48;;;;;;;12.05;100.00;101478.06;7374941;19;20010;-67
2022/10/25 06:07:20;;;;;;;20.40;10.77;;;;;;;12.05;100.00;101474.53;7370640;19;20367;-67
2022/10/25 06:09:50;;;;;;;21.80;9.98;;;;;;;12.03;100.00;101486.78;7376726;19;20002;-69
2022/10/25 06:12:20;;;;;;;20.52;10.75;;;;;;;12.04;100.00;101489.44;7378541;19;20022;-66
2022/10/25 06:14:49;;;;;;;25.00;11.77;;;;;;;12.05;100.00;101485.94;7381132;19;20039;-67
2022/10/25 06:17:19;;;;;;;30.30;11.43;;;;;;;12.02;100.00;101485.88;7377154;19;20424;-66
2022/10/25 06:19:51;;;;;;;24.23;11.20;;;;;;;11.95;100.00;101478.75;7373906;19;20018;-67
2022/10/25 06:22:21;;;;;;;22.75;11.38;;;;;;;11.95;100.00;101481.38;7371927;19;20029;-76
2022/10/25 06:24:51;;;;;;;21.92;10.40;;;;;;;11.98;100.00;101481.44;7370142;19;20010;-68
2022/10/25 06:27:21;;;;;;;19.33;10.80;;;;;;;11.97;100.00;101489.28;7374267;19;20352;-69
2022/10/25 06:29:51;;;;;;;19.08;10.35;;;;;;;11.96;100.00;101496.28;7376045;19;20025;-68
2022/10/25 06:32:22;;;;;;;20.73;9.23;;;;;;;11.96;100.00;101501.56;7378582;19;20011;-69
2022/10/25 06:34:57;;;;;;;19.95;9.63;;;;;;;11.99;100.00;101498.97;7379613;19;20010;-69
2022/10/25 06:37:26;;;;;;;19.67;9.15;;;;;;;12.03;100.00;101505.19;7372682;19;20014;-68
2022/10/25 06:39:56;;;;;;;21.40;9.57;;;;;;;12.05;100.00;101506.97;7380188;19;20014;-69
2022/10/25 06:42:26;;;;;;;23.08;10.43;;;;;;;12.13;100.00;101508.84;7379452;19;20014;-68
2022/10/25 06:44:56;;;;;;;27.48;12.27;;;;;;;12.13;100.00;101508.84;7380034;19;20031;-70
2022/10/25 06:47:26;;;;;;;25.70;11.30;;;;;;;12.11;100.00;101514.09;7378567;19;20014;-69
2022/10/25 06:49:59;;;;;;;23.15;10.88;;;;;;;12.09;100.00;101524.56;7381083;19;20049;-69
2022/10/25 06:52:29;;;;;;;22.70;9.18;;;;;;;12.17;100.00;101531.72;7372256;19;21245;-68
2022/10/25 06:55:00;;;;;;;19.08;9.45;;;;;;;12.14;100.00;101537.81;7376173;19;20052;-68
2022/10/25 06:57:30;;;;;;;23.50;11.43;;;;;;;12.16;100.00;101543.09;7376397;19;20010;-69
2022/10/25 07:00:00;;;;;;;21.73;9.30;;;;;;;12.16;100.00;101543.09;7378457;19;20015;-69
2022/10/25 07:02:56;;;;;;;21.48;10.52;;;;;;;12.16;100.00;101546.59;7378176;19;20025;-69
2022/10/25 07:05:28;;;;;;;21.77;9.75;;;;;;;12.18;100.00;101544.00;7378573;19;20043;-69
2022/10/25 07:07:58;;;;;;;26.40;11.00;;;;;;;12.16;100.00;101546.59;7378696;19;20019;-69
2022/10/25 07:10:28;;;;;;;23.35;11.13;;;;;;;12.20;100.00;101552.81;7375386;19;20586;-68
2022/10/25 07:12:57;;;;;;;22.50;11.15;;;;;;;12.19;100.00;101564.19;7376548;19;20021;-69
2022/10/25 07:15:27;;;;;;;27.05;11.35;;;;;;;12.20;100.00;101555.44;7378877;19;20566;-69
2022/10/25 07:17:57;;;;;;;23.50;10.55;;;;;;;12.19;100.00;101561.56;7377538;19;20389;-68
2022/10/25 07:20:29;;;;;;;25.80;9.88;;;;;;;12.23;100.00;101563.38;7377484;19;20017;-70
2022/10/25 07:22:59;;;;;;;19.25;10.07;;;;;;;12.20;100.00;101568.59;7373785;19;20010;-69
2022/10/25 07:25:30;;;;;;;18.17;9.35;;;;;;;12.25;100.00;101566.94;7376259;19;20011;-69
2022/10/25 07:28:00;;;;;;;21.20;9.25;;;;;;;12.23;100.00;101566.00;7378572;19;20038;-69
2022/10/25 07:30:31;;;;;;;18.92;8.93;;;;;;;12.20;100.00;101563.31;7378162;19;20043;-69
2022/10/25 07:33:01;;;;;;;17.38;8.57;;;;;;;12.20;100.00;101568.59;7372338;19;20011;-70
2022/10/25 07:35:34;;;;;;;17.42;9.10;;;;;;;12.21;100.00;101570.34;7376952;19;20025;-68
2022/10/25 07:38:21;;;;;;;19.00;8.75;;;;;;;12.21;100.00;101573.88;7378561;19;20487;-68
2022/10/25 07:40:59;;;;;;;16.98;8.18;;;;;;;12.25;100.00;101585.34;7376772;19;20013;-68
2022/10/25 07:43:29;;;;;;;16.20;7.88;;;;;;;12.29;100.00;101590.69;7376967;19;20018;-68
2022/10/25 07:45:59;;;;;;;15.95;7.22;;;;;;;12.32;100.00;101588.09;7374861;19;20021;-68
2022/10/25 07:48:29;;;;;;;14.15;6.93;;;;;;;12.32;100.00;101582.84;7373010;19;20026;-68
2022/10/25 07:51:05;;;;;;;14.35;7.55;;;;;;;12.33;100.00;101584.63;7379658;19;20021;-68
2022/10/25 07:53:34;;;;;;;16.73;8.88;;;;;;;12.37;100.00;101589.06;7371404;19;20026;-68
2022/10/25 07:56:04;;;;;;;17.13;8.38;;;;;;;12.40;100.00;101588.25;7377547;19;20133;-68
2022/10/25 07:58:34;;;;;;;19.38;9.13;;;;;;;12.44;100.00;101597.97;7377003;19;20038;-68
2022/10/25 08:01:06;;;;;;;16.67;8.73;;;;;;;12.49;100.00;101588.38;7379172;19;20401;-68
2022/10/25 08:03:37;;;;;;;20.67;9.30;;;;;;;12.61;100.00;101595.59;7377136;19;20014;-68
2022/10/25 08:06:09;;;;;;;21.17;8.77;;;;;;;12.69;100.00;101597.50;7376332;19;20025;-68
2022/10/25 08:08:38;;;;;;;20.15;9.40;;;;;;;12.74;100.00;101598.44;7372733;19;20011;-68
2022/10/25 08:11:09;;;;;;;17.30;9.00;;;;;;;12.78;100.00;101596.75;7374471;19;20022;-67
2022/10/25 08:13:39;;;;;;;19.95;8.90;;;;;;;12.83;100.00;101607.38;7376399;19;19999;-69
2022/10/25 08:16:10;;;;;;;22.90;9.27;;;;;;;12.85;100.00;101608.28;7374572;19;20007;-69
2022/10/25 08:18:39;;;;;;;22.88;10.82;;;;;;;12.88;100.00;101614.47;7374576;19;20483;-69
2022/10/25 08:21:11;;;;;;;24.52;10.02;;;;;;;13.01;100.00;101615.56;7375215;19;20011;-69
2022/10/25 08:23:41;;;;;;;21.38;9.75;;;;;;;13.05;100.00;101607.72;7376847;19;20015;-70
2022/10/25 08:26:12;;;;;;;23.17;10.15;;;;;;;13.09;100.00;101611.28;7373027;19;20011;-68
2022/10/25 08:28:42;;;;;;;23.48;10.98;;;;;;;13.18;100.00;101613.22;7376568;19;20042;-69
2022/10/25 08:31:12;;;;;;;25.40;11.57;;;;;;;13.40;100.00;101612.66;7374465;19;20172;-69
2022/10/25 08:33:42;;;;;;;24.08;11.77;;;;;;;13.43;100.00;101611.81;7375249;19;20011;-69
2022/10/25 08:36:14;;;;;;;27.65;12.52;;;;;;;13.57;100.00;101613.75;7375444;19;20422;-68
2022/10/25 08:38:44;;;;;;;21.48;11.25;;;;;;;13.60;100.00;101620.81;7375187;19;20015;-69
2022/10/25 08:41:19;;;;;;;21.10;11.02;;;;;;;13.59;100.00;101624.31;7374103;19;20014;-69
2022/10/25 08:44:07;;;;;;;28.63;11.63;;;;;;;13.50;100.00;101622.47;7371394;19;20014;-69
2022/10/25 08:46:41;;;;;;;20.35;11.45;;;;;;;13.49;100.00;101631.22;7375407;19;20022;-67
2022/10/25 08:49:19;;;;;;;22.63;11.00;;;;;;;13.41;100.00;101636.41;7375730;19;20006;-69
2022/10/25 08:51:52;;;;;;;22.30;11.07;;;;;;;13.59;100.00;101635.72;7377094;19;20015;-67
2022/10/25 08:54:30;;;;;;;20.80;9.63;;;;;;;13.74;100.00;101632.41;7371437;19;20014;-69
2022/10/25 08:57:07;;;;;;;17.30;9.43;;;;;;;13.85;100.00;101632.56;7372392;19;20086;-69
2022/10/25 08:59:47;;;;;;;21.27;9.20;;;;;;;14.01;100.00;101627.50;7378776;19;20015;-69
2022/10/25 09:02:24;;;;;;;16.90;8.68;;;;;;;14.12;100.00;101629.38;7378628;19;20017;-67
2022/10/25 09:04:55;;;;;;;20.15;8.85;;;;;;;14.10;100.00;101626.72;7384810;19;20049;-69
2022/10/25 09:07:47;;;;;;;19.23;8.35;;;;;;;14.04;100.00;101638.06;7382146;19;20043;-66
2022/10/25 09:10:30;;;;;;;14.43;7.95;;;;;;;14.11;100.00;101636.38;7378336;19;20022;-69
2022/10/25 09:13:06;;;;;;;19.30;8.75;;;;;;;14.30;100.00;101640.13;7383535;19;20019;-69
2022/10/25 09:15:54;;;;;;;20.65;8.02;;;;;;;14.24;100.00;101647.97;7383300;19;20013;-69
2022/10/25 09:18:32;;;;;;;18.23;8.80;;;;;;;14.22;100.00;101650.59;7382103;19;20948;-69
2022/10/25 09:21:07;;;;;;;19.45;10.73;;;;;;;14.17;100.00;101649.66;7381638;19;20029;-69
2022/10/25 09:23:57;;;;;;;19.95;10.60;;;;;;;14.11;100.00;101659.25;7382905;19;20010;-69
2022/10/25 09:26:41;;;;;;;22.98;11.32;;;;;;;14.02;100.00;101663.53;7380240;19;20019;-69
2022/10/25 09:29:19;;;;;;;23.05;9.70;;;;;;;14.04;100.00;101656.53;7379344;19;20010;-69
2022/10/25 09:31:53;;;;;;;22.92;9.77;;;;;;;14.10;100.00;101661.00;7380240;19;20622;-69
2022/10/25 09:34:25;;;;;;;18.88;9.57;;;;;;;14.21;100.00;101672.56;7383918;19;20461;-69
2022/10/25 09:37:00;;;;;;;20.52;9.45;;;;;;;14.28;100.00;101668.25;7381584;19;20252;-69
2022/10/25 09:39:39;;;;;;;20.08;10.80;;;;;;;14.24;100.00;101671.72;7382642;19;20015;-69
2022/10/25 09:42:18;;;;;;;23.75;10.07;;;;;;;14.37;100.00;101673.63;7378704;19;20089;-70
2022/10/25 09:44:53;;;;;;;22.25;10.15;;;;;;;14.34;100.00;101678.88;7383169;19;20064;-69
2022/10/25 09:47:32;;;;;;;20.88;10.55;;;;;;;14.36;100.00;101677.13;7382677;19;20022;-69
2022/10/25 09:50:04;;;;;;;24.05;10.65;;;;;;;14.52;100.00;101683.50;7379211;19;20486;-71
2022/10/25 09:52:56;;;;;;;21.57;9.33;;;;;;;14.61;100.00;101675.63;7377649;19;20015;-71
2022/10/25 09:55:44;;;;;;;21.13;11.05;;;;;;;14.67;100.00;101679.22;7377432;19;20010;-70
2022/10/25 09:58:20;;;;;;;21.98;11.05;;;;;;;14.60;100.00;101673.88;7380931;19;20026;-71
2022/10/25 10:00:51;;;;;;;21.15;11.45;;;;;;;14.58;100.00;101676.50;7379362;19;20493;-71
2022/10/25 10:03:22;;;;;;;21.35;10.15;;;;;;;14.77;100.00;101680.19;7383775;19;20006;-70
2022/10/25 10:05:56;;;;;;;19.48;10.85;;;;;;;14.80;100.00;101682.88;7381926;19;20093;-70
2022/10/25 10:08:27;;;;;;;;;;;;;;;14.62;100.00;101688.84;7380881;19;20018;-70
2022/10/25 10:11:00;;;;;;;19.77;8.73;;;;;;;14.75;100.00;101681.94;7377827;19;19921;-70
2022/10/25 10:13:37;;;;;;;16.58;9.27;;;;;;;14.94;100.00;101683.00;7375214;19;20018;-68
2022/10/25 10:16:20;;;;;;;18.88;8.80;;;;;;;15.04;100.00;101690.13;7380312;19;20026;-69
2022/10/25 10:18:50;;;;;;;16.10;7.75;;;;;;;15.18;100.00;101688.47;7381389;19;20022;-70
2022/10/25 10:21:22;;;;;;;14.68;7.10;;;;;;;15.09;100.00;101693.69;7378418;19;20064;-69
2022/10/25 10:23:56;;;;;;;14.50;6.95;;;;;;;15.09;100.00;101695.44;7376515;19;20006;-69
2022/10/25 10:26:33;;;;;;;14.55;6.95;;;;;;;15.29;100.00;101692.09;7377665;19;20010;-68
2022/10/25 10:29:11;;;;;;;12.10;6.30;;;;;;;15.58;100.00;101699.38;7382130;19;20018;-69
2022/10/25 10:31:49;;;;;;;14.15;6.10;;;;;;;15.52;100.00;101696.66;7381423;19;20362;-69
2022/10/25 10:34:28;;;;;;;15.03;6.87;;;;;;;15.70;100.00;101695.00;7381732;19;20026;-69
2022/10/25 10:37:22;;;;;;;13.27;6.30;;;;;;;15.88;100.00;101696.00;7382251;19;20021;-69
2022/10/25 10:39:54;;;;;;;12.38;5.70;;;;;;;16.01;100.00;101693.41;7378290;19;20010;-69
2022/10/25 10:42:35;;;;;;;11.68;5.55;;;;;;;15.83;100.00;101701.25;7381391;19;20027;-70
2022/10/25 10:45:17;;;;;;;12.95;5.45;;;;;;;16.00;100.00;101689.00;7381292;19;20010;-69
2022/10/25 10:47:58;;;;;;;11.82;6.13;;;;;;;15.98;100.00;101692.53;7378757;19;20015;-69
2022/10/25 10:50:31;;;;;;;13.45;5.40;;;;;;;16.03;100.00;101693.41;7378900;19;20510;-69
2022/10/25 10:53:04;;;;;;;10.80;4.80;;;;;;;16.17;100.00;101696.13;7376779;19;20014;-69
2022/10/25 10:55:47;;;;;;;13.63;4.40;;;;;;;16.08;100.00;101691.69;7380291;19;20014;-69
2022/10/25 10:58:25;;;;;;;12.95;4.70;;;;;;;16.13;100.00;101697.00;7378170;19;20019;-68
2022/10/25 11:00:58;;;;;;;11.93;4.20;;;;;;;16.09;100.00;101701.38;7376591;19;20010;-69
2022/10/25 11:03:47;;;;;;;13.13;4.80;;;;;;;15.92;100.00;101706.59;7378920;19;20044;-69
2022/10/25 11:06:31;;;;;;;14.65;4.60;;;;;;;16.29;100.00;101698.81;7379326;19;20006;-69
2022/10/25 11:09:16;;;;;;;10.63;5.05;;;;;;;16.35;100.00;101715.59;7373952;19;20501;-69
2022/10/25 11:12:04;;;;;;;15.23;4.75;;;;;;;16.40;100.00;101715.63;7373861;19;20424;-69
2022/10/25 11:14:37;;;;;;;9.88;5.30;;;;;;;16.18;100.00;101701.44;7380260;19;20286;-69
2022/10/25 11:17:13;;;;;;;13.68;4.57;;;;;;;16.32;100.00;101701.47;7380698;19;21612;-70
2022/10/25 11:20:04;;;;;;;14.32;4.80;;;;;;;16.35;100.00;101706.78;7380945;19;20021;-69
2022/10/25 11:22:58;;;;;;;14.23;4.68;;;;;;;16.33;100.00;101698.84;7377658;19;20010;-69
2022/10/25 11:25:40;;;;;;;15.82;4.53;;;;;;;16.29;100.00;101696.19;7380308;19;20027;-70
2022/10/25 11:28:38;;;;;;;15.63;4.65;;;;;;;16.27;100.00;101698.81;7376773;19;20035;-70
2022/10/25 11:31:22;;;;;;;9.50;4.93;;;;;;;16.32;100.00;101706.78;7374539;19;20019;-70
2022/10/25 11:34:04;;;;;;;14.95;5.82;;;;;;;16.11;100.00;101715.50;7376995;19;20018;-69
2022/10/25 11:37:00;;;;;;;13.93;5.53;;;;;;;15.97;100.00;101720.72;7378485;19;20018;-69
2022/10/25 11:39:41;;;;;;;16.25;4.93;;;;;;;16.05;100.00;101725.19;7373438;19;20025;-71